createdAt,value
2022-10-11T00:00:36.768Z,62.51
2022-10-11T00:03:16.696Z,53.18
2022-10-11T00:05:57.277Z,56.47
2022-10-11T00:08:37.070Z,57.01
2022-10-11T00:11:18.638Z,56.97
2022-10-11T00:14:06.507Z,60.63
2022-10-11T00:16:48.886Z,59.76
2022-10-11T00:19:28.948Z,60.08
2022-10-11T00:22:12.560Z,56.62
2022-10-11T00:24:55.920Z,55.14
2022-10-11T00:27:39.072Z,58.48
2022-10-11T00:30:22.007Z,62.11
2022-10-11T00:33:06.655Z,62.11
2022-10-11T00:35:49.794Z,64.36
2022-10-11T00:38:33.119Z,66.49
2022-10-11T00:41:16.598Z,66.57
2022-10-11T00:44:10.001Z,62.62
2022-10-11T00:47:01.746Z,61.70
2022-10-11T00:49:58.499Z,63.33
2022-10-11T00:52:41.053Z,66.76
2022-10-11T00:55:31.388Z,62.84
2022-10-11T00:58:14.909Z,60.82
2022-10-11T01:00:58.773Z,60.45
2022-10-11T01:03:47.013Z,58.71
2022-10-11T01:06:31.147Z,50.04
2022-10-11T01:09:14.720Z,50.34
2022-10-11T01:12:01.328Z,49.11
2022-10-11T01:15:05.876Z,49.61
2022-10-11T01:18:16.789Z,54.98
2022-10-11T01:21:25.529Z,61.96
2022-10-11T01:24:23.406Z,62.72
2022-10-11T01:27:26.471Z,62.83
2022-10-11T01:30:25.990Z,60.79
2022-10-11T01:33:14.596Z,62.60
2022-10-11T01:36:06.159Z,69.95
2022-10-11T01:38:56.138Z,69.95
2022-10-11T01:41:41.501Z,69.86
2022-10-11T01:44:25.658Z,70.07
2022-10-11T01:47:08.685Z,71.07
2022-10-11T01:50:00.170Z,72.40
2022-10-11T01:52:47.749Z,73.65
2022-10-11T01:55:51.862Z,67.55
2022-10-11T01:59:09.447Z,69.09
2022-10-11T02:02:09.627Z,69.87
2022-10-11T02:04:55.533Z,71.21
2022-10-11T02:07:51.263Z,68.90
2022-10-11T02:10:51.687Z,60.01
2022-10-11T02:13:59.944Z,56.48
2022-10-11T02:17:07.683Z,57.01
2022-10-11T02:19:53.388Z,57.09
2022-10-11T02:22:39.247Z,55.44
2022-10-11T02:25:27.157Z,55.43
2022-10-11T02:28:17.226Z,55.80
2022-10-11T02:31:02.511Z,57.51
2022-10-11T02:33:50.214Z,52.12
2022-10-11T02:37:05.639Z,52.46
2022-10-11T02:39:55.931Z,51.64
2022-10-11T02:42:45.572Z,57.31
2022-10-11T02:45:36.315Z,60.42
2022-10-11T02:48:24.163Z,60.25
2022-10-11T02:51:14.331Z,61.12
2022-10-11T02:53:53.280Z,61.25
2022-10-11T02:56:34.924Z,62.94
2022-10-11T02:59:18.887Z,65.03
2022-10-11T03:02:01.717Z,64.54
2022-10-11T03:04:46.787Z,65.21
2022-10-11T03:07:28.822Z,64.55
2022-10-11T03:10:16.361Z,68.74
2022-10-11T03:12:55.571Z,68.37
2022-10-11T03:15:42.815Z,71.46
2022-10-11T03:18:25.956Z,72.83
2022-10-11T03:21:09.202Z,73.56
2022-10-11T03:23:51.651Z,71.75
2022-10-11T03:26:34.737Z,72.06
2022-10-11T03:29:17.906Z,71.53
2022-10-11T03:32:01.095Z,65.32
2022-10-11T03:34:43.633Z,62.42
2022-10-11T03:37:22.790Z,62.86
2022-10-11T03:40:08.722Z,61.87
2022-10-11T03:42:47.661Z,61.11
2022-10-11T03:45:26.666Z,61.66
2022-10-11T03:48:06.261Z,63.52
2022-10-11T03:50:50.041Z,61.18
2022-10-11T03:53:33.799Z,64.86
2022-10-11T03:56:17.693Z,62.94
2022-10-11T03:59:02.135Z,61.42
2022-10-11T04:01:45.071Z,60.20
2022-10-11T04:04:39.641Z,59.74
2022-10-11T04:07:22.809Z,56.70
2022-10-11T04:10:07.159Z,52.76
2022-10-11T04:12:50.090Z,58.04
2022-10-11T04:15:41.311Z,60.66
2022-10-11T04:18:24.857Z,61.83
2022-10-11T04:21:07.990Z,62.14
2022-10-11T04:23:51.596Z,62.69
2022-10-11T04:26:38.779Z,63.53
2022-10-11T04:29:18.911Z,63.63
2022-10-11T04:32:10.060Z,65.31
2022-10-11T04:34:56.759Z,65.64
2022-10-11T04:37:39.799Z,64.87
2022-10-11T04:40:22.872Z,68.92
2022-10-11T04:43:10.014Z,68.69
2022-10-11T04:45:55.501Z,66.76
2022-10-11T04:48:37.849Z,64.47
2022-10-11T04:51:25.277Z,65.03
2022-10-11T04:54:07.640Z,56.35
2022-10-11T04:56:50.924Z,53.70
2022-10-11T04:59:29.890Z,53.15
2022-10-11T05:02:14.014Z,53.64
2022-10-11T05:05:01.675Z,55.01
2022-10-11T05:07:48.774Z,52.40
2022-10-11T05:10:27.839Z,52.29
2022-10-11T05:13:15.933Z,53.71
2022-10-11T05:16:08.229Z,57.88
2022-10-11T05:18:53.678Z,53.49
2022-10-11T05:21:36.762Z,54.46
2022-10-11T05:24:21.053Z,55.26
2022-10-11T05:27:09.032Z,55.19
2022-10-11T05:29:56.615Z,57.12
2022-10-11T05:32:38.720Z,57.90
2022-10-11T05:35:21.816Z,54.97
2022-10-11T05:38:05.156Z,54.38
2022-10-11T05:40:48.295Z,56.99
2022-10-11T05:43:31.900Z,55.02
2022-10-11T05:46:15.218Z,51.97
2022-10-11T05:48:58.018Z,49.55
2022-10-11T05:51:40.669Z,50.44
2022-10-11T05:54:23.732Z,51.43
2022-10-11T05:57:06.823Z,49.78
2022-10-11T05:59:50.226Z,48.90
2022-10-11T06:02:33.891Z,45.83
2022-10-11T06:05:17.064Z,45.75
2022-10-11T06:18:22.973Z,49.31
2022-10-11T06:21:07.263Z,48.69
2022-10-11T06:23:50.918Z,46.99
2022-10-11T06:26:33.975Z,46.13
2022-10-11T06:29:24.755Z,47.54
2022-10-11T06:32:10.447Z,47.89
2022-10-11T06:34:54.878Z,47.23
2022-10-11T06:37:36.941Z,52.57
2022-10-11T06:40:15.198Z,50.88
2022-10-11T06:42:58.656Z,49.62
2022-10-11T06:45:41.782Z,51.64
2022-10-11T06:48:24.907Z,55.54
2022-10-11T06:51:08.034Z,56.43
2022-10-11T06:53:59.099Z,55.11
2022-10-11T06:56:41.717Z,55.78
2022-10-11T06:59:26.843Z,50.21
2022-10-11T07:02:10.335Z,55.22
2022-10-11T07:04:52.974Z,56.84
2022-10-11T07:07:34.719Z,47.17
2022-10-11T07:10:17.849Z,44.91
2022-10-11T07:13:00.885Z,45.36
2022-10-11T07:15:43.957Z,51.02
2022-10-11T07:18:27.665Z,48.28
2022-10-11T07:21:13.882Z,45.66
2022-10-11T07:24:02.579Z,48.23
2022-10-11T07:26:45.575Z,50.79
2022-10-11T07:29:29.665Z,51.33
2022-10-11T07:32:13.845Z,49.30
2022-10-11T07:34:57.954Z,50.39
2022-10-11T07:37:42.077Z,48.87
2022-10-11T07:40:21.630Z,49.38
2022-10-11T07:43:06.002Z,45.18
2022-10-11T07:45:54.255Z,44.71
2022-10-11T07:48:37.187Z,41.97
2022-10-11T07:51:26.881Z,42.44
2022-10-11T07:54:07.553Z,43.75
2022-10-11T07:56:51.787Z,40.75
2022-10-11T07:59:33.894Z,45.23
2022-10-11T08:02:16.926Z,47.03
2022-10-11T08:05:01.083Z,43.12
2022-10-11T08:07:44.629Z,43.39
2022-10-11T08:10:37.521Z,41.69
2022-10-11T08:13:19.675Z,39.99
2022-10-11T08:16:12.112Z,42.17
2022-10-11T08:18:58.917Z,50.65
2022-10-11T08:21:45.847Z,47.67
2022-10-11T08:24:29.084Z,43.91
2022-10-11T08:27:11.622Z,39.84
2022-10-11T08:29:54.967Z,43.46
2022-10-11T08:32:37.927Z,43.36
2022-10-11T08:35:21.582Z,43.14
2022-10-11T08:38:05.744Z,45.13
2022-10-11T08:40:59.474Z,47.33
2022-10-11T08:43:45.372Z,45.58
2022-10-11T08:46:14.483Z,45.58
2022-10-11T08:48:48.268Z,45.81
2022-10-11T08:51:22.606Z,46.54
2022-10-11T08:54:39.831Z,44.54
2022-10-11T08:57:08.031Z,44.85
2022-10-11T08:59:47.744Z,42.97
2022-10-11T09:02:49.273Z,44.05
2022-10-11T09:05:19.063Z,45.84
2022-10-11T09:07:56.482Z,44.05
2022-10-11T09:10:27.211Z,46.24
2022-10-11T09:13:16.747Z,45.54
2022-10-11T09:15:47.528Z,44.62
2022-10-11T09:18:24.987Z,42.08
2022-10-11T09:21:13.340Z,40.47
2022-10-11T09:24:17.675Z,40.27
2022-10-11T09:26:52.195Z,41.60
2022-10-11T09:29:22.724Z,41.68
2022-10-11T09:31:55.199Z,41.23
2022-10-11T09:34:32.509Z,40.22
2022-10-11T09:37:03.814Z,41.60
2022-10-11T09:39:41.535Z,39.61
2022-10-11T09:42:10.560Z,39.32
2022-10-11T09:44:50.739Z,39.33
2022-10-11T09:47:36.031Z,38.24
2022-10-11T09:50:15.532Z,37.05
2022-10-11T09:52:55.034Z,37.19
2022-10-11T09:55:53.756Z,36.86
2022-10-11T09:58:33.403Z,34.82
2022-10-11T10:01:08.533Z,36.50
2022-10-11T10:03:43.223Z,35.64
2022-10-11T10:06:16.712Z,33.94
2022-10-11T10:08:47.323Z,33.82
2022-10-11T10:11:15.324Z,34.44
2022-10-11T10:13:46.357Z,34.51
2022-10-11T10:16:28.473Z,34.15
2022-10-11T10:19:04.067Z,34.32
2022-10-11T10:21:44.803Z,33.86
2022-10-11T10:24:19.800Z,34.09
2022-10-11T10:27:17.106Z,32.81
2022-10-11T10:30:01.836Z,33.32
2022-10-11T10:32:48.204Z,34.02
2022-10-11T10:35:16.270Z,32.86
2022-10-11T10:37:51.767Z,32.85
2022-10-11T10:40:24.398Z,31.45
2022-10-11T10:42:52.719Z,33.82
2022-10-11T10:45:25.160Z,36.30
2022-10-11T10:48:14.854Z,36.82
2022-10-11T10:50:50.230Z,35.25
2022-10-11T10:53:36.554Z,33.34
2022-10-11T10:56:31.454Z,33.71
2022-10-11T10:59:25.222Z,33.79
2022-10-11T11:02:38.964Z,34.80
2022-10-11T11:05:07.173Z,32.85
2022-10-11T11:07:45.481Z,33.68
2022-10-11T11:10:19.650Z,33.87
2022-10-11T11:12:53.175Z,33.14
2022-10-11T11:15:33.162Z,32.69
2022-10-11T11:18:25.950Z,33.15
2022-10-11T11:21:19.875Z,36.32
2022-10-11T11:24:04.456Z,32.91
2022-10-11T11:26:45.028Z,32.72
2022-10-11T11:29:38.844Z,32.42
2022-10-11T11:32:24.849Z,33.71
2022-10-11T11:34:58.392Z,33.14
2022-10-11T11:37:33.618Z,35.08
2022-10-11T11:40:24.166Z,32.89
2022-10-11T11:42:54.633Z,32.99
2022-10-11T11:45:25.468Z,32.83
2022-10-11T11:47:59.815Z,33.48
2022-10-11T11:50:28.685Z,33.30
2022-10-11T11:53:00.594Z,34.45
2022-10-11T11:55:52.586Z,35.30
2022-10-11T11:58:32.650Z,33.25
2022-10-11T12:01:28.796Z,34.01
2022-10-11T12:04:04.247Z,36.12
2022-10-11T12:06:33.582Z,32.10
2022-10-11T12:09:19.512Z,35.36
2022-10-11T12:12:01.786Z,35.51
2022-10-11T12:14:33.067Z,35.94
2022-10-11T12:17:16.267Z,34.79
2022-10-11T12:20:17.052Z,34.45
2022-10-11T12:22:50.474Z,34.58
2022-10-11T12:25:22.418Z,31.93
2022-10-11T12:27:51.336Z,32.37
2022-10-11T12:30:43.795Z,32.57
2022-10-11T12:33:21.514Z,31.46
2022-10-11T12:35:54.891Z,32.71
2022-10-11T12:38:31.368Z,34.33
2022-10-11T12:41:09.517Z,34.22
2022-10-11T12:43:57.101Z,35.30
2022-10-11T12:46:33.815Z,36.64
2022-10-11T12:49:25.748Z,33.68
2022-10-11T12:52:05.578Z,34.66
2022-10-11T12:54:52.133Z,37.10
2022-10-11T12:57:46.434Z,36.37
2022-10-11T13:00:23.767Z,38.52
2022-10-11T13:02:51.498Z,36.23
2022-10-11T13:05:45.159Z,37.78
2022-10-11T13:08:24.626Z,36.95
2022-10-11T13:10:52.819Z,36.06
2022-10-11T13:13:26.252Z,35.52
2022-10-11T13:15:54.722Z,34.12
2022-10-11T13:18:24.223Z,35.49
2022-10-11T13:20:52.075Z,35.35
2022-10-11T13:23:34.329Z,35.96
2022-10-11T13:26:02.574Z,32.98
2022-10-11T13:28:36.185Z,35.30
2022-10-11T13:31:04.716Z,37.97
2022-10-11T13:33:35.191Z,38.02
2022-10-11T13:36:06.318Z,36.74
2022-10-11T13:38:36.830Z,36.12
2022-10-11T13:41:06.214Z,35.84
2022-10-11T13:43:34.352Z,37.57
2022-10-11T13:46:05.237Z,36.69
2022-10-11T13:48:39.415Z,37.33
2022-10-11T13:51:18.819Z,38.98
2022-10-11T13:54:01.599Z,41.12
2022-10-11T13:56:32.646Z,37.54
2022-10-11T13:59:01.407Z,36.96
2022-10-11T14:01:39.377Z,37.63
2022-10-11T14:04:12.424Z,38.23
2022-10-11T14:06:48.501Z,37.49
2022-10-11T14:09:37.886Z,36.95
2022-10-11T14:12:44.433Z,36.40
2022-10-11T14:15:26.897Z,36.41
2022-10-11T14:17:54.745Z,36.23
2022-10-11T14:20:24.242Z,36.02
2022-10-11T14:22:53.009Z,35.88
2022-10-11T14:25:21.238Z,35.80
2022-10-11T14:27:49.379Z,36.49
2022-10-11T14:30:27.365Z,36.62
2022-10-11T14:33:18.970Z,37.16
2022-10-11T14:35:48.578Z,37.46
2022-10-11T14:38:16.209Z,36.53
2022-10-11T14:40:44.194Z,37.83
2022-10-11T14:43:11.842Z,37.44
2022-10-11T14:45:39.350Z,37.34
2022-10-11T14:48:06.733Z,37.21
2022-10-11T14:50:47.810Z,37.36
2022-10-11T14:53:15.294Z,37.41
2022-10-11T14:55:43.626Z,37.46
2022-10-11T14:58:13.841Z,37.89
2022-10-11T15:00:41.307Z,37.63
2022-10-11T15:03:09.285Z,37.62
2022-10-11T15:05:37.860Z,37.58
2022-10-11T15:08:06.904Z,37.74
2022-10-11T15:10:40.206Z,37.60
2022-10-11T15:13:08.508Z,37.99
2022-10-11T15:15:38.147Z,37.88
2022-10-11T15:18:08.177Z,39.90
2022-10-11T15:20:38.877Z,39.75
2022-10-11T15:23:07.922Z,38.23
2022-10-11T15:25:37.807Z,36.49
2022-10-11T15:28:06.025Z,35.16
2022-10-11T15:30:40.945Z,37.78
2022-10-11T15:33:09.456Z,38.79
2022-10-11T15:35:36.799Z,39.64
2022-10-11T15:38:04.470Z,39.99
2022-10-11T15:40:35.438Z,40.41
2022-10-11T15:43:03.593Z,38.73
2022-10-11T15:45:31.614Z,39.61
2022-10-11T15:47:59.358Z,39.84
2022-10-11T15:50:34.677Z,40.12
2022-10-11T15:53:31.450Z,40.08
2022-10-11T15:56:03.796Z,39.75
2022-10-11T15:58:34.976Z,40.19
2022-10-11T16:01:12.003Z,40.05
2022-10-11T16:03:40.699Z,41.87
2022-10-11T16:06:08.859Z,41.54
2022-10-11T16:08:36.628Z,41.33
2022-10-11T16:11:05.779Z,42.74
2022-10-11T16:13:34.048Z,45.53
2022-10-11T16:16:03.603Z,45.65
2022-10-11T16:18:35.295Z,46.41
2022-10-11T16:21:11.506Z,47.09
2022-10-11T16:23:39.351Z,48.45
2022-10-11T16:26:09.849Z,50.03
2022-10-11T16:28:38.120Z,49.50
2022-10-11T16:31:18.149Z,51.15
2022-10-11T16:33:46.373Z,51.24
2022-10-11T16:36:32.008Z,52.95
2022-10-11T16:39:00.606Z,52.98
2022-10-11T16:41:28.601Z,53.58
2022-10-11T16:43:56.279Z,52.76
2022-10-11T16:46:24.317Z,54.93
2022-10-11T16:48:55.392Z,53.88
2022-10-11T16:51:24.275Z,56.09
2022-10-11T16:53:53.137Z,54.52
2022-10-11T16:56:24.156Z,52.79
2022-10-11T16:58:53.243Z,56.28
2022-10-11T17:01:20.846Z,58.02
2022-10-11T17:03:49.865Z,56.80
2022-10-11T17:06:19.026Z,53.69
2022-10-11T17:08:46.606Z,54.63
2022-10-11T17:11:16.761Z,56.88
2022-10-11T17:13:45.457Z,57.37
2022-10-11T17:16:12.825Z,57.82
2022-10-11T17:18:40.655Z,58.02
2022-10-11T17:21:11.998Z,59.06
2022-10-11T17:23:39.399Z,62.04
2022-10-11T17:26:11.411Z,60.72
2022-10-11T17:28:39.522Z,60.02
2022-10-11T17:31:08.168Z,62.70
2022-10-11T17:33:36.232Z,66.94
2022-10-11T17:36:15.607Z,66.65
2022-10-11T17:38:43.684Z,67.28
2022-10-11T17:41:12.226Z,66.39
2022-10-11T17:43:40.569Z,66.51
2022-10-11T17:46:09.702Z,69.09
2022-10-11T17:48:39.230Z,71.15
2022-10-11T17:51:11.655Z,70.15
2022-10-11T17:53:39.518Z,69.84
2022-10-11T17:56:14.478Z,68.45
2022-10-11T17:58:42.719Z,66.39
2022-10-11T18:01:13.619Z,64.31
2022-10-11T18:03:42.370Z,62.56
2022-10-11T18:06:12.400Z,62.92
2022-10-11T18:08:40.903Z,64.60
2022-10-11T18:11:13.885Z,64.07
2022-10-11T18:13:45.961Z,67.15
2022-10-11T18:16:15.021Z,68.04
2022-10-11T18:18:43.240Z,68.08
2022-10-11T18:21:13.210Z,63.87
2022-10-11T18:23:41.344Z,63.69
2022-10-11T18:26:16.226Z,65.94
2022-10-11T18:28:45.398Z,66.07
2022-10-11T18:31:15.873Z,66.96
2022-10-11T18:33:45.963Z,67.20
2022-10-11T18:36:15.616Z,67.19
2022-10-11T18:38:46.814Z,65.04
2022-10-11T18:41:17.474Z,62.34
2022-10-11T18:43:50.414Z,61.15
2022-10-11T18:46:19.631Z,59.69
2022-10-11T18:48:49.155Z,58.05
2022-10-11T18:51:22.300Z,58.62
2022-10-11T18:53:50.318Z,63.03
2022-10-11T18:56:20.942Z,63.51
2022-10-11T18:58:51.545Z,63.87
2022-10-11T19:01:31.112Z,57.34
2022-10-11T19:04:00.866Z,57.11
2022-10-11T19:06:31.742Z,58.89
2022-10-11T19:09:01.878Z,59.03
2022-10-11T19:11:29.849Z,59.85
2022-10-11T19:13:59.763Z,57.61
2022-10-11T19:16:29.673Z,56.17
2022-10-11T19:18:58.359Z,59.60
2022-10-11T19:21:26.399Z,60.50
2022-10-11T19:23:55.346Z,60.41
2022-10-11T19:26:32.389Z,59.07
2022-10-11T19:29:03.587Z,60.34
2022-10-11T19:31:33.000Z,61.21
2022-10-11T19:34:01.279Z,62.12
2022-10-11T19:36:33.988Z,60.94
2022-10-11T19:39:05.961Z,60.89
2022-10-11T19:41:34.036Z,61.63
2022-10-11T19:44:03.456Z,64.36
2022-10-11T19:46:50.577Z,64.18
2022-10-11T19:49:21.604Z,66.35
2022-10-11T19:51:49.297Z,64.55
2022-10-11T19:54:17.172Z,64.84
2022-10-11T19:56:44.957Z,64.86
2022-10-11T19:59:13.536Z,63.83
2022-10-11T20:01:41.836Z,66.31
2022-10-11T20:04:27.376Z,67.52
2022-10-11T20:06:55.080Z,67.84
2022-10-11T20:09:30.968Z,68.02
2022-10-11T20:11:58.930Z,67.25
2022-10-11T20:14:27.057Z,63.87
2022-10-11T20:16:54.699Z,66.47
2022-10-11T20:19:27.793Z,67.34
2022-10-11T20:21:58.115Z,66.06
2022-10-11T20:24:27.468Z,65.55
2022-10-11T20:26:55.327Z,64.77
2022-10-11T20:29:25.312Z,63.82
2022-10-11T20:31:52.677Z,62.94
2022-10-11T20:34:20.347Z,65.03
2022-10-11T20:36:49.246Z,68.39
2022-10-11T20:39:18.073Z,69.07
2022-10-11T20:41:45.547Z,68.11
2022-10-11T20:44:15.850Z,66.55
2022-10-11T20:46:43.380Z,64.78
2022-10-11T20:49:12.057Z,65.32
2022-10-11T20:51:41.568Z,67.62
2022-10-11T20:54:10.075Z,69.92
2022-10-11T20:56:37.742Z,70.25
2022-10-11T20:59:06.275Z,70.44
2022-10-11T21:01:37.176Z,67.01
2022-10-11T21:04:06.294Z,68.34
2022-10-11T21:06:34.217Z,68.25
2022-10-11T21:09:02.002Z,67.19
2022-10-11T21:11:31.573Z,68.85
2022-10-11T21:14:01.297Z,69.17
2022-10-11T21:16:29.072Z,68.90
2022-10-11T21:18:58.217Z,70.85
2022-10-11T21:21:26.241Z,68.51
2022-10-11T21:23:54.656Z,69.16
2022-10-11T21:26:22.639Z,67.20
2022-10-11T21:28:50.373Z,59.78
2022-10-11T21:31:19.812Z,59.12
2022-10-11T21:33:48.137Z,53.98
2022-10-11T21:36:16.517Z,66.62
2022-10-11T21:38:44.195Z,68.28
2022-10-11T21:41:20.117Z,70.89
2022-10-11T21:43:47.892Z,69.65
2022-10-11T21:46:21.652Z,72.77
2022-10-11T21:48:50.178Z,73.64
2022-10-11T21:51:27.756Z,75.03
2022-10-11T21:53:56.335Z,74.23
2022-10-11T21:56:23.987Z,72.18
2022-10-11T21:58:51.379Z,72.15
2022-10-11T22:01:19.647Z,70.85
2022-10-11T22:03:48.149Z,70.22
2022-10-11T22:06:16.573Z,69.00
2022-10-11T22:08:44.202Z,68.52
2022-10-11T22:11:12.282Z,68.57
2022-10-11T22:13:39.640Z,68.47
2022-10-11T22:16:11.591Z,69.01
2022-10-11T22:18:39.541Z,68.70
2022-10-11T22:21:13.466Z,67.41
2022-10-11T22:23:42.034Z,68.63
2022-10-11T22:26:12.472Z,70.30
2022-10-11T22:28:40.763Z,68.08
2022-10-11T22:31:09.277Z,67.31
2022-10-11T22:33:37.184Z,67.35
2022-10-11T22:36:08.814Z,66.76
2022-10-11T22:38:37.431Z,69.51
2022-10-11T22:41:05.074Z,69.43
2022-10-11T22:43:33.002Z,71.95
2022-10-11T22:46:00.761Z,70.71
2022-10-11T22:48:28.104Z,69.71
2022-10-11T22:50:55.464Z,68.38
2022-10-11T22:53:23.387Z,69.14
2022-10-11T22:55:51.072Z,69.14
2022-10-11T22:58:18.475Z,69.25
2022-10-11T23:00:46.076Z,69.10
2022-10-11T23:03:14.708Z,69.27
2022-10-11T23:05:42.162Z,68.77
2022-10-11T23:08:09.928Z,69.18
2022-10-11T23:10:40.708Z,70.12
2022-10-11T23:13:08.099Z,69.80
2022-10-11T23:15:40.254Z,70.00
2022-10-11T23:18:07.598Z,69.58
2022-10-11T23:20:34.956Z,69.23
2022-10-11T23:23:02.562Z,69.91
2022-10-11T23:25:29.898Z,70.40
2022-10-11T23:28:00.407Z,69.16
2022-10-11T23:30:29.491Z,70.44
2022-10-11T23:32:57.000Z,69.37
2022-10-11T23:35:24.799Z,68.54
2022-10-11T23:37:55.661Z,67.97
2022-10-11T23:40:23.154Z,67.38
2022-10-11T23:42:50.488Z,67.38
2022-10-11T23:45:18.114Z,68.14
2022-10-11T23:47:45.462Z,66.85
2022-10-11T23:50:12.945Z,66.30
2022-10-11T23:52:40.578Z,65.60
2022-10-11T23:55:08.334Z,64.97
2022-10-11T23:57:35.885Z,63.21
